createdAt,value
2018-04-28T00:00:31.238Z,5.57
2018-04-28T00:02:59.471Z,5.73
2018-04-28T00:05:26.939Z,5.60
2018-04-28T00:07:54.503Z,5.53
2018-04-28T00:10:21.914Z,5.53
2018-04-28T00:12:50.168Z,5.70
2018-04-28T00:15:17.887Z,5.67
2018-04-28T00:17:46.148Z,5.73
2018-04-28T00:20:14.559Z,5.93
2018-04-28T00:22:43.057Z,5.53
2018-04-28T00:25:10.550Z,5.87
2018-04-28T00:27:40.727Z,5.73
2018-04-28T00:30:09.107Z,5.47
2018-04-28T00:32:36.590Z,5.97
2018-04-28T00:35:04.972Z,6.37
2018-04-28T00:37:42.040Z,6.63
2018-04-28T00:43:04.818Z,6.60
2018-04-28T00:45:33.711Z,6.77
2018-04-28T00:48:01.282Z,7.37
2018-04-28T00:53:28.154Z,7.37
2018-04-28T00:55:57.137Z,7.23
2018-04-28T00:58:30.550Z,6.90
2018-04-28T01:04:07.402Z,5.83
2018-04-28T01:06:34.871Z,6.07
2018-04-28T01:09:02.382Z,6.47
2018-04-28T01:11:34.575Z,6.07
2018-04-28T01:14:14.848Z,6.70
2018-04-28T01:16:45.311Z,6.10
2018-04-28T01:19:12.775Z,5.97
2018-04-28T01:21:41.095Z,6.40
2018-04-28T01:24:09.415Z,6.10
2018-04-28T01:26:45.862Z,6.33
2018-04-28T01:29:19.318Z,6.50
2018-04-28T01:31:58.367Z,6.30
2018-04-28T01:34:29.242Z,6.40
2018-04-28T01:37:12.387Z,7.00
2018-04-28T01:39:39.848Z,6.13
2018-04-28T01:45:17.748Z,6.20
2018-04-28T01:48:00.822Z,5.87
2018-04-28T01:50:32.928Z,6.60
2018-04-28T01:53:01.191Z,6.40
2018-04-28T01:55:34.719Z,5.80
2018-04-28T01:58:06.731Z,6.13
2018-04-28T02:00:41.108Z,5.63
2018-04-28T02:06:20.779Z,6.20
2018-04-28T02:08:49.651Z,6.47
2018-04-28T02:11:20.779Z,7.03
2018-04-28T02:13:51.123Z,6.67
2018-04-28T02:16:20.035Z,6.53
2018-04-28T02:18:59.599Z,6.30
2018-04-28T02:21:28.632Z,6.13
2018-04-28T02:24:07.880Z,6.57
2018-04-28T02:26:42.915Z,6.50
2018-04-28T02:29:19.550Z,7.00
2018-04-28T02:31:54.434Z,7.40
2018-04-28T02:34:41.352Z,6.63
2018-04-28T02:37:13.365Z,6.83
2018-04-28T02:42:52.691Z,6.00
2018-04-28T02:45:24.895Z,6.60
2018-04-28T02:47:55.011Z,7.30
2018-04-28T02:50:39.251Z,6.33
2018-04-28T02:56:41.192Z,6.10
2018-04-28T02:59:16.623Z,6.90
2018-04-28T03:01:58.990Z,6.30
2018-04-28T03:04:35.275Z,6.50
2018-04-28T03:07:19.440Z,6.67
2018-04-28T03:09:48.495Z,6.63
2018-04-28T03:12:16.736Z,6.73
2018-04-28T03:14:44.213Z,7.47
2018-04-28T03:17:13.230Z,7.10
2018-04-28T03:19:42.975Z,7.43
2018-04-28T03:22:11.111Z,7.07
2018-04-28T03:24:47.009Z,6.90
2018-04-28T03:27:25.093Z,6.70
2018-04-28T03:29:54.194Z,5.90
2018-04-28T03:32:41.579Z,5.90
2018-04-28T03:35:17.482Z,6.40
2018-04-28T03:37:52.998Z,6.33
2018-04-28T03:40:22.158Z,5.87
2018-04-28T03:43:03.144Z,6.33
2018-04-28T03:45:35.406Z,6.07
2018-04-28T03:48:10.438Z,5.73
2018-04-28T03:50:37.920Z,5.77
2018-04-28T03:53:06.889Z,6.30
2018-04-28T03:55:36.346Z,6.33
2018-04-28T03:58:15.710Z,6.07
2018-04-28T04:00:55.094Z,6.43
2018-04-28T04:03:23.327Z,6.00
2018-04-28T04:08:53.167Z,5.90
2018-04-28T04:11:44.128Z,6.33
2018-04-28T04:14:21.094Z,6.27
2018-04-28T04:16:57.163Z,5.37
2018-04-28T04:22:44.280Z,5.83
2018-04-28T04:25:18.299Z,6.30
2018-04-28T04:27:50.454Z,5.77
2018-04-28T04:30:27.735Z,5.50
2018-04-28T04:32:58.660Z,5.60
2018-04-28T04:35:33.655Z,6.23
2018-04-28T04:38:01.832Z,6.10
2018-04-28T04:40:31.923Z,5.67
2018-04-28T04:42:59.432Z,5.27
2018-04-28T04:48:58.083Z,5.90
2018-04-28T04:51:45.970Z,5.77
2018-04-28T04:54:31.961Z,6.13
2018-04-28T05:00:30.527Z,6.13
2018-04-28T05:03:09.998Z,6.27
2018-04-28T05:05:44.335Z,6.07
2018-04-28T05:11:42.079Z,6.57
2018-04-28T05:14:27.309Z,6.20
2018-04-28T05:17:02.375Z,5.83
2018-04-28T05:19:35.720Z,5.97
2018-04-28T05:22:13.923Z,6.17
2018-04-28T05:27:59.865Z,5.77
2018-04-28T05:30:47.779Z,5.63
2018-04-28T05:36:38.956Z,6.60
2018-04-28T05:39:28.344Z,7.07
2018-04-28T05:42:07.747Z,7.20
2018-04-28T05:44:44.795Z,6.03
2018-04-28T05:47:24.289Z,5.83
2018-04-28T05:53:02.329Z,5.93
2018-04-28T05:55:38.302Z,5.30
2018-04-28T06:01:14.604Z,5.80
2018-04-28T06:07:01.960Z,7.67
2018-04-28T06:09:41.431Z,10.23
2018-04-28T06:12:18.836Z,8.07
2018-04-28T06:14:49.079Z,7.30
2018-04-28T06:17:39.012Z,6.53
2018-04-28T06:23:03.902Z,7.70
2018-04-28T06:25:32.141Z,6.00
2018-04-28T06:27:59.623Z,7.00
2018-04-28T06:30:27.095Z,6.00
2018-04-28T06:32:55.360Z,5.90
2018-04-28T06:35:22.990Z,5.23
2018-04-28T06:37:50.627Z,4.30
2018-04-28T06:40:18.134Z,4.50
2018-04-28T06:42:45.628Z,4.43
2018-04-28T06:45:13.117Z,4.70
2018-04-28T06:47:40.588Z,5.03
2018-04-28T06:50:08.070Z,4.47
2018-04-28T06:52:35.550Z,4.33
2018-04-28T06:55:03.029Z,3.67
2018-04-28T06:57:30.511Z,4.10
2018-04-28T06:59:58.062Z,4.00
2018-04-28T07:02:25.730Z,4.37
2018-04-28T07:04:53.230Z,3.73
2018-04-28T07:07:20.696Z,4.20
2018-04-28T07:09:48.323Z,4.23
2018-04-28T07:12:15.791Z,3.83
2018-04-28T07:14:43.282Z,3.90
2018-04-28T07:17:10.774Z,3.70
2018-04-28T07:19:38.255Z,4.97
2018-04-28T07:22:05.732Z,4.77
2018-04-28T07:24:50.074Z,4.80
2018-04-28T07:27:17.603Z,4.20
2018-04-28T07:29:45.342Z,4.53
2018-04-28T07:32:12.851Z,4.30
2018-04-28T07:34:40.370Z,4.70
2018-04-28T07:37:08.007Z,4.33
2018-04-28T07:39:36.237Z,4.07
2018-04-28T07:42:03.739Z,4.20
2018-04-28T07:44:31.208Z,3.80
2018-04-28T07:46:58.712Z,3.80
2018-04-28T07:49:26.218Z,4.27
2018-04-28T07:51:53.727Z,4.00
2018-04-28T07:54:21.191Z,4.60
2018-04-28T07:56:48.779Z,3.90
2018-04-28T07:59:16.254Z,3.70
2018-04-28T08:01:43.723Z,3.33
2018-04-28T08:04:11.201Z,4.10
2018-04-28T08:06:38.670Z,3.70
2018-04-28T08:09:06.163Z,3.87
2018-04-28T08:11:33.683Z,3.10
2018-04-28T08:14:01.158Z,2.93
2018-04-28T08:16:28.627Z,3.20
2018-04-28T08:18:56.096Z,3.50
2018-04-28T08:21:23.568Z,2.67
2018-04-28T08:23:51.042Z,2.73
2018-04-28T08:26:19.340Z,2.67
2018-04-28T08:28:47.611Z,2.70
2018-04-28T08:31:15.201Z,2.57
2018-04-28T08:33:42.679Z,2.70
2018-04-28T08:36:10.156Z,2.63
2018-04-28T08:38:37.652Z,2.43
2018-04-28T08:41:05.126Z,3.20
2018-04-28T08:43:32.602Z,3.20
2018-04-28T08:46:00.136Z,3.00
2018-04-28T08:48:27.694Z,2.83
2018-04-28T08:50:55.170Z,2.83
2018-04-28T08:53:22.671Z,2.77
2018-04-28T08:55:50.190Z,2.80
2018-04-28T08:58:18.478Z,2.80
2018-04-28T09:00:57.104Z,3.20
2018-04-28T09:03:24.578Z,2.90
2018-04-28T09:05:52.092Z,2.90
2018-04-28T09:08:20.216Z,2.67
2018-04-28T09:10:48.732Z,3.20
2018-04-28T09:13:17.648Z,2.87
2018-04-28T09:15:45.202Z,2.70
2018-04-28T09:18:12.694Z,2.90
2018-04-28T09:20:40.255Z,2.50
2018-04-28T09:23:07.748Z,2.73
2018-04-28T09:25:35.250Z,2.63
2018-04-28T09:28:02.731Z,2.70
2018-04-28T09:30:30.199Z,2.10
2018-04-28T09:32:57.685Z,2.50
2018-04-28T09:35:25.173Z,2.20
2018-04-28T09:37:52.646Z,2.63
2018-04-28T09:40:20.148Z,2.60
2018-04-28T09:42:48.446Z,1.90
2018-04-28T09:45:15.937Z,2.07
2018-04-28T09:47:43.511Z,2.10
2018-04-28T09:50:11.094Z,1.73
2018-04-28T09:52:38.576Z,2.20
2018-04-28T09:55:06.053Z,2.00
2018-04-28T09:57:33.538Z,2.17
2018-04-28T10:00:12.976Z,2.43
2018-04-28T10:02:40.451Z,2.07
2018-04-28T10:05:07.921Z,2.20
2018-04-28T10:07:35.456Z,2.30
2018-04-28T10:10:02.953Z,2.67
2018-04-28T10:12:30.520Z,2.30
2018-04-28T10:14:58.111Z,2.47
2018-04-28T10:17:25.787Z,2.60
2018-04-28T10:19:53.259Z,2.50
2018-04-28T10:22:20.758Z,2.43
2018-04-28T10:24:48.240Z,2.03
2018-04-28T10:27:15.719Z,2.37
2018-04-28T10:29:43.244Z,2.70
2018-04-28T10:32:10.728Z,2.60
2018-04-28T10:34:38.223Z,2.63
2018-04-28T10:37:05.700Z,2.33
2018-04-28T10:39:33.166Z,2.30
2018-04-28T10:42:00.639Z,2.80
2018-04-28T10:44:28.139Z,2.50
2018-04-28T10:46:55.710Z,2.57
2018-04-28T10:49:23.179Z,2.63
2018-04-28T10:51:50.682Z,2.47
2018-04-28T10:54:18.187Z,2.53
2018-04-28T10:56:45.678Z,2.43
2018-04-28T10:59:13.146Z,2.50
2018-04-28T11:01:40.619Z,2.47
2018-04-28T11:04:08.091Z,2.27
2018-04-28T11:06:35.562Z,2.20
2018-04-28T11:09:03.042Z,2.33
2018-04-28T11:11:30.524Z,2.30
2018-04-28T11:13:58.006Z,2.30
2018-04-28T11:16:25.489Z,2.40
2018-04-28T11:18:52.973Z,2.53
2018-04-28T11:21:20.462Z,2.30
2018-04-28T11:23:47.946Z,2.50
2018-04-28T11:26:15.488Z,2.20
2018-04-28T11:28:42.964Z,2.10
2018-04-28T11:31:10.435Z,2.30
2018-04-28T11:33:37.911Z,2.50
2018-04-28T11:36:05.423Z,2.33
2018-04-28T11:38:32.942Z,2.10
2018-04-28T11:41:00.394Z,2.30
2018-04-28T11:43:27.964Z,2.10
2018-04-28T11:45:57.200Z,2.43
2018-04-28T11:48:24.671Z,2.10
2018-04-28T11:50:52.183Z,2.50
2018-04-28T11:53:19.699Z,2.60
2018-04-28T11:55:47.152Z,2.40
2018-04-28T11:58:14.623Z,2.77
2018-04-28T12:00:42.134Z,2.67
2018-04-28T12:03:09.627Z,2.60
2018-04-28T12:05:37.207Z,2.60
2018-04-28T12:08:04.677Z,2.37
2018-04-28T12:10:32.159Z,2.90
2018-04-28T12:12:59.657Z,2.53
2018-04-28T12:15:27.142Z,2.63
2018-04-28T12:17:54.626Z,2.50
2018-04-28T12:20:22.099Z,2.80
2018-04-28T12:22:49.592Z,2.17
2018-04-28T12:25:17.174Z,2.50
2018-04-28T12:27:44.643Z,2.30
2018-04-28T12:30:12.147Z,2.50
2018-04-28T12:32:39.616Z,2.70
2018-04-28T12:35:07.128Z,2.37
2018-04-28T12:37:34.607Z,2.77
2018-04-28T12:40:02.084Z,2.30
2018-04-28T12:42:29.578Z,2.13
2018-04-28T12:44:57.165Z,2.40
2018-04-28T12:47:24.739Z,2.57
2018-04-28T12:49:52.208Z,2.93
2018-04-28T12:52:19.701Z,2.43
2018-04-28T12:54:47.179Z,2.70
2018-04-28T12:57:14.656Z,2.63
2018-04-28T12:59:42.134Z,2.40
2018-04-28T13:02:09.603Z,2.50
2018-04-28T13:04:37.128Z,2.70
2018-04-28T13:07:04.600Z,2.77
2018-04-28T13:09:32.122Z,3.63
2018-04-28T13:11:59.600Z,2.90
2018-04-28T13:14:27.098Z,2.70
2018-04-28T13:16:54.687Z,2.63
2018-04-28T13:19:22.166Z,3.00
2018-04-28T13:21:49.668Z,2.83
2018-04-28T13:24:17.246Z,2.90
2018-04-28T13:26:44.827Z,3.20
2018-04-28T13:29:12.357Z,2.77
2018-04-28T13:31:39.792Z,2.27
2018-04-28T13:34:07.279Z,2.93
2018-04-28T13:36:34.767Z,2.67
2018-04-28T13:39:02.234Z,3.00
2018-04-28T13:41:29.727Z,2.80
2018-04-28T13:43:57.200Z,2.83
2018-04-28T13:46:24.676Z,2.47
2018-04-28T13:48:52.163Z,2.80
2018-04-28T13:51:20.153Z,3.03
2018-04-28T13:53:47.659Z,2.90
2018-04-28T13:56:15.137Z,2.47
2018-04-28T13:58:42.618Z,2.63
2018-04-28T14:01:10.107Z,2.40
2018-04-28T14:03:37.579Z,2.50
2018-04-28T14:06:05.058Z,2.53
2018-04-28T14:08:33.307Z,2.50
2018-04-28T14:11:00.811Z,2.50
2018-04-28T14:13:28.312Z,2.40
2018-04-28T14:15:56.377Z,2.20
2018-04-28T14:18:23.852Z,2.40
2018-04-28T14:20:51.330Z,2.63
2018-04-28T14:23:18.853Z,1.90
2018-04-28T14:25:46.322Z,2.70
2018-04-28T14:28:13.795Z,3.07
2018-04-28T14:30:41.273Z,2.20
2018-04-28T14:33:08.758Z,2.30
2018-04-28T14:35:36.243Z,2.80
2018-04-28T14:38:03.855Z,2.13
2018-04-28T14:40:31.344Z,2.17
2018-04-28T14:42:58.823Z,2.50
2018-04-28T14:45:27.072Z,2.10
2018-04-28T14:47:54.542Z,2.40
2018-04-28T14:50:22.015Z,2.13
2018-04-28T14:52:50.340Z,2.13
2018-04-28T14:55:17.884Z,2.37
2018-04-28T14:57:45.373Z,1.90
2018-04-28T15:00:12.864Z,2.37
2018-04-28T15:02:41.154Z,2.03
2018-04-28T15:05:08.637Z,1.90
2018-04-28T15:07:36.230Z,1.77
2018-04-28T15:10:03.723Z,2.87
2018-04-28T15:12:31.970Z,2.13
2018-04-28T15:14:59.510Z,2.17
2018-04-28T15:17:28.500Z,2.07
2018-04-28T15:19:55.984Z,2.40
2018-04-28T15:22:23.466Z,3.27
2018-04-28T15:24:50.961Z,2.80
2018-04-28T15:27:18.456Z,1.70
2018-04-28T15:29:45.943Z,2.07
2018-04-28T15:32:13.528Z,2.30
2018-04-28T15:34:41.008Z,2.23
2018-04-28T15:37:08.524Z,2.30
2018-04-28T15:39:35.992Z,1.70
2018-04-28T15:42:03.479Z,1.83
2018-04-28T15:44:30.955Z,1.90
2018-04-28T15:46:58.456Z,1.93
2018-04-28T15:49:25.955Z,2.40
2018-04-28T15:51:53.419Z,2.00
2018-04-28T15:54:20.891Z,1.93
2018-04-28T15:56:48.359Z,2.00
2018-04-28T15:59:15.843Z,2.00
2018-04-28T16:01:43.325Z,2.00
2018-04-28T16:04:10.854Z,2.30
2018-04-28T16:06:38.424Z,2.10
2018-04-28T16:09:05.895Z,2.00
2018-04-28T16:11:33.367Z,2.10
2018-04-28T16:14:00.843Z,2.10
2018-04-28T16:16:29.100Z,2.13
2018-04-28T16:18:56.698Z,2.37
2018-04-28T16:21:24.286Z,2.17
2018-04-28T16:23:53.289Z,1.90
2018-04-28T16:26:20.902Z,2.27
2018-04-28T16:28:48.382Z,1.83
2018-04-28T16:31:15.857Z,2.00
2018-04-28T16:33:43.390Z,2.30
2018-04-28T16:36:15.822Z,2.40
2018-04-28T16:38:48.126Z,2.20
2018-04-28T16:41:21.227Z,1.90
2018-04-28T16:43:54.411Z,2.27
2018-04-28T16:46:22.819Z,2.07
2018-04-28T16:48:50.282Z,2.57
2018-04-28T16:51:18.538Z,2.23
2018-04-28T16:53:46.014Z,1.87
2018-04-28T16:56:13.492Z,2.10
2018-04-28T16:58:40.968Z,2.53
2018-04-28T17:01:08.477Z,1.93
2018-04-28T17:03:35.961Z,2.00
2018-04-28T17:06:03.451Z,2.03
2018-04-28T17:08:30.937Z,2.27
2018-04-28T17:10:58.567Z,2.07
2018-04-28T17:13:26.050Z,1.80
2018-04-28T17:15:53.527Z,1.80
2018-04-28T17:18:21.140Z,2.03
2018-04-28T17:20:49.395Z,2.03
2018-04-28T17:23:16.866Z,3.17
2018-04-28T17:25:44.431Z,6.50
2018-04-28T17:28:12.697Z,6.87
2018-04-28T17:30:40.279Z,5.23
2018-04-28T17:33:07.757Z,5.20
2018-04-28T17:35:35.243Z,4.20
2018-04-28T17:38:02.719Z,3.40
2018-04-28T17:40:30.215Z,2.53
2018-04-28T17:42:57.833Z,2.30
2018-04-28T17:45:26.018Z,1.93
2018-04-28T17:47:54.262Z,1.97
2018-04-28T17:50:21.727Z,2.00
2018-04-28T17:52:49.998Z,2.03
2018-04-28T17:55:18.990Z,2.20
2018-04-28T17:57:46.486Z,2.10
2018-04-28T18:00:13.955Z,2.40
2018-04-28T18:02:41.486Z,2.17
2018-04-28T18:05:09.375Z,2.60
2018-04-28T18:07:36.860Z,3.23
2018-04-28T18:10:05.143Z,3.23
2018-04-28T18:12:32.635Z,3.00
2018-04-28T18:15:00.112Z,2.50
2018-04-28T18:17:27.614Z,2.60
2018-04-28T18:19:55.914Z,3.33
2018-04-28T18:22:23.483Z,3.60
2018-04-28T18:24:51.089Z,3.93
2018-04-28T18:27:18.563Z,5.43
2018-04-28T18:29:46.041Z,6.93
2018-04-28T18:32:13.510Z,6.43
2018-04-28T18:34:41.070Z,5.17
2018-04-28T18:37:08.611Z,4.47
2018-04-28T18:39:36.087Z,4.67
2018-04-28T18:42:04.360Z,6.87
2018-04-28T18:44:32.613Z,7.30
2018-04-28T18:47:00.087Z,6.93
2018-04-28T18:49:28.337Z,3.93
2018-04-28T18:51:57.274Z,3.47
2018-04-28T18:54:26.388Z,3.60
2018-04-28T18:56:55.375Z,3.90
2018-04-28T18:59:23.627Z,3.30
2018-04-28T19:01:51.090Z,3.40
2018-04-28T19:04:18.654Z,3.13
2018-04-28T19:06:46.926Z,3.07
2018-04-28T19:09:15.185Z,3.90
2018-04-28T19:11:42.765Z,3.47
2018-04-28T19:14:11.097Z,3.33
2018-04-28T19:16:39.405Z,3.47
2018-04-28T19:19:06.914Z,3.63
2018-04-28T19:21:35.255Z,3.67
2018-04-28T19:24:02.744Z,3.60
2018-04-28T19:26:31.058Z,4.20
2018-04-28T19:28:58.530Z,6.57
2018-04-28T19:31:26.791Z,6.63
2018-04-28T19:33:54.354Z,5.33
2018-04-28T19:36:22.623Z,5.23
2018-04-28T19:38:50.162Z,4.43
2018-04-28T19:41:18.676Z,4.33
2018-04-28T19:43:46.214Z,4.70
2018-04-28T19:46:13.722Z,4.30
2018-04-28T19:48:41.996Z,4.90
2018-04-28T19:51:09.470Z,5.20
2018-04-28T19:53:36.999Z,5.13
2018-04-28T19:56:04.503Z,5.23
2018-04-28T19:58:32.011Z,5.60
2018-04-28T20:01:01.995Z,6.13
2018-04-28T20:03:30.302Z,6.90
2018-04-28T20:05:58.627Z,8.53
2018-04-28T20:08:26.114Z,7.63
2018-04-28T20:10:57.043Z,7.20
2018-04-28T20:13:25.338Z,7.07
2018-04-28T20:15:52.907Z,8.10
2018-04-28T20:18:20.506Z,8.00
2018-04-28T20:20:48.107Z,8.30
2018-04-28T20:23:27.591Z,7.80
2018-04-28T20:25:55.097Z,7.40
2018-04-28T20:28:22.582Z,7.17
2018-04-28T20:30:50.069Z,6.57
2018-04-28T20:33:17.770Z,6.03
2018-04-28T20:35:46.042Z,5.20
2018-04-28T20:38:13.546Z,5.13
2018-04-28T20:40:41.024Z,6.13
2018-04-28T20:43:08.494Z,5.83
2018-04-28T20:45:35.985Z,5.97
2018-04-28T20:48:03.582Z,6.57
2018-04-28T20:50:31.397Z,6.07
2018-04-28T20:52:58.915Z,6.23
2018-04-28T20:55:26.389Z,6.40
2018-04-28T20:57:53.912Z,6.53
2018-04-28T21:00:21.478Z,7.03
2018-04-28T21:02:49.743Z,7.67
2018-04-28T21:05:17.279Z,7.13
2018-04-28T21:07:44.863Z,6.80
2018-04-28T21:10:12.346Z,6.67
2018-04-28T21:12:39.835Z,7.03
2018-04-28T21:15:07.432Z,7.13
2018-04-28T21:17:34.911Z,6.90
2018-04-28T21:20:02.496Z,7.03
2018-04-28T21:22:29.963Z,6.73
2018-04-28T21:24:57.460Z,6.83
2018-04-28T21:27:24.942Z,7.43
2018-04-28T21:29:53.186Z,6.73
2018-04-28T21:32:21.423Z,6.40
2018-04-28T21:34:48.899Z,6.13
2018-04-28T21:37:16.367Z,6.47
2018-04-28T21:39:43.945Z,6.60
2018-04-28T21:42:11.516Z,5.70
2018-04-28T21:44:39.782Z,6.00
2018-04-28T21:47:07.250Z,6.20
2018-04-28T21:49:34.726Z,6.27
2018-04-28T21:52:02.280Z,5.40
2018-04-28T21:54:30.861Z,5.80
2018-04-28T21:56:58.481Z,6.13
2018-04-28T21:59:26.067Z,6.70
2018-04-28T22:01:53.596Z,6.40
2018-04-28T22:04:21.187Z,6.30
2018-04-28T22:06:48.808Z,6.30
2018-04-28T22:09:17.075Z,6.10
2018-04-28T22:11:44.558Z,5.70
2018-04-28T22:14:12.181Z,5.80
2018-04-28T22:16:39.652Z,5.73
2018-04-28T22:19:07.131Z,6.13
2018-04-28T22:21:34.717Z,5.67
2018-04-28T22:24:03.764Z,5.53
2018-04-28T22:26:31.307Z,6.10
2018-04-28T22:28:58.780Z,5.87
2018-04-28T22:31:26.364Z,6.50
2018-04-28T22:33:53.835Z,6.43
2018-04-28T22:36:22.104Z,5.53
2018-04-28T22:38:49.580Z,5.73
2018-04-28T22:41:17.057Z,6.53
2018-04-28T22:43:44.535Z,5.83
2018-04-28T22:46:12.011Z,5.57
2018-04-28T22:48:39.479Z,6.00
2018-04-28T22:51:06.957Z,5.97
2018-04-28T22:53:35.216Z,5.90
2018-04-28T22:56:02.699Z,5.77
2018-04-28T22:58:30.198Z,5.77
2018-04-28T23:00:57.677Z,5.70
2018-04-28T23:03:25.250Z,5.90
2018-04-28T23:05:52.734Z,5.67
2018-04-28T23:08:20.202Z,5.70
2018-04-28T23:10:47.677Z,5.57
2018-04-28T23:13:15.179Z,6.00
2018-04-28T23:15:42.652Z,5.47
2018-04-28T23:18:10.156Z,5.53
2018-04-28T23:20:37.632Z,5.67
2018-04-28T23:23:05.115Z,5.70
2018-04-28T23:25:32.588Z,5.80
2018-04-28T23:28:00.098Z,5.57
2018-04-28T23:30:27.596Z,5.57
2018-04-28T23:32:55.079Z,5.13
2018-04-28T23:35:22.560Z,4.80
2018-04-28T23:37:50.032Z,5.20
2018-04-28T23:40:17.546Z,4.90
2018-04-28T23:42:45.791Z,5.10
2018-04-28T23:45:13.260Z,5.30
2018-04-28T23:47:41.503Z,4.90
2018-04-28T23:50:08.979Z,5.27
2018-04-28T23:52:36.453Z,5.40
2018-04-28T23:55:03.928Z,4.70
2018-04-28T23:57:31.408Z,5.33
2018-04-28T23:59:58.884Z,4.77
